Tiempo atmosférico en la estación meteorológica de Es Mercadal, Illes Balears (77 m.)



Fecha
DESCASC
Temp. máxima en grados centígrados (hora)
DESCASC
Temp. mínima en grados centígrados (hora)
DESCASC
Temp. media en grados centígrados
DESCASC
Racha de viento máxima en m/sg (hora)
DESCASC
Velocidad máxima media en intervalos de 10 minutos(hora)
DESCASC
Precipitaciones diarias en mm
DESCASC
Precipitaciones de 00:00 a 06:00 en mm
DESCASC
Precipitaciones de 06:00 a 12:00 en mm
DESCASC
Precipitaciones de 12:00 a 18:00 en mm
DESCASC
Precipitaciones de 18:00 a 24:00 en mm
DESCASC
06-07-2020 28.9 (15:50) 22.1 (00:30) 25.5 12.5 (11:50) 8.06 (11:50) 0 0 0 0 0
05-07-2020 30.1 (17:00) 19.5 (04:20) 24.8 8.89 (14:50) 6.11 (14:20) 0 0 0 0 0
04-07-2020 26.1 (14:00) 20.1 (23:10) 23.1 8.89 (10:10) 5.56 (10:10) 0 0 0 0 0
03-07-2020 25 (14:20) 21.5 (22:40) 23.3 13.89 (11:50) 9.72 (10:30) 0 0 0 0 0
02-07-2020 29.1 (11:50) 21.4 (00:00) 25.3 7.78 (13:40) 5.28 (15:40) 0 0 0 0 0
01-07-2020 32 (14:40) 21.5 (00:00) 26.8 11.39 (12:50) 7.22 (11:10) 0 0 0 0 0
30-06-2020 31.3 (15:10) 19.5 (00:00) 25.4 10.28 (15:00) 6.39 (16:10) 0 0 0 0 0
29-06-2020 29.3 (12:10) 21.2 (00:00) 25.3 7.78 (12:50) 5.28 (14:10) 0 0 0 0 0
28-06-2020 30.4 (17:10) 19.1 (00:00) 24.8 7.78 (14:50) 5.56 (14:20) 0 0 0 0 0
27-06-2020 28.8 (14:50) 20.2 (00:00) 24.5 7.5 (17:30) 4.72 (16:40) 0 0 0 0 0
26-06-2020 32.6 (14:30) 18.7 (00:00) 25.6 9.72 (12:30) 6.39 (15:00) 0 0 0 0 0
25-06-2020 32.5 (13:40) 20.3 (00:00) 26.4 9.17 (19:00) 6.11 (14:10) 0 0 0 0 0
24-06-2020 31.4 (14:40) 17.7 (00:00) 24.6 8.33 (14:40) 5.83 (15:10) 0 0 0 0 0
23-06-2020 28.4 (15:30) 19.6 (00:00) 24 7.22 (11:20) 4.72 (08:50) 0 0 0 0 0
22-06-2020 25.6 (15:40) 18.5 (00:00) 22.1 15.83 (11:40) 11.11 (11:50) 0 0 0 0 0
21-06-2020 27.5 (16:10) 18.3 (00:00) 22.9 10.28 (12:30) 6.94 (12:50) 0 0 0 0 0
20-06-2020 27.2 (13:50) 18.3 (00:00) 22.8 7.78 (16:50) 5.28 (16:30) 0 0 0 0 0
19-06-2020 24.6 (20:10) 16.9 (00:00) 20.8 8.89 (14:20) 6.11 (14:20) 0 0 0 0 0
18-06-2020 25.3 (18:30) 17.7 (00:00) 21.5 12.78 (13:40) 8.06 (13:50) 0.2 0.2 0 0 0
17-06-2020 25.4 (15:00) 15.8 (00:00) 20.6 9.72 (16:30) 6.67 (15:10) 1.4 0 0 1.4 0
16-06-2020 25.4 (11:50) 16.8 (00:00) 21.1 8.33 (15:50) 5.83 (15:50) 0 0 0 0 0
15-06-2020 26.5 (17:10) 17 (00:00) 21.8 6.94 (16:00) 4.72 (16:50) 0 0 0 0 0
14-06-2020 25.3 (13:00) 16.2 (00:00) 20.8 7.78 (22:50) 5.28 (22:50) 0 0 0 0 0
13-06-2020 26.3 (14:40) 18 (00:00) 22.1 11.67 (13:10) 7.78 (12:30) 0 0 0 0 0
12-06-2020 25.6 (14:00) 18.8 (00:00) 22.2 15.83 (03:20) 11.11 (03:10) 0 0 0 0 0
11-06-2020 23.2 (14:30) 16.4 (00:00) 19.8 15.28 (18:10) 10 (17:10) 0.2 0 0.2 0 0

Gráficas

Temp. máximas Temp. mínimas Temp. medias Precipitaciones Rachas de viento máximas Velocidades máximas media en intervalos de 10 minutos

Datos horarios

Fecha y hora oficial Temperatura (ºC) Velocidad del viento (km/h) Dirección del viento Racha (km/h) Dirección de racha Precipitación (mm) Presión (hPa) Tendencia (hPa) Humedad (%)
2020-07-10 23:00:00 23 7 Sudoeste 13 Sudoeste 0 -- -- 80
2020-07-10 22:00:00 23.6 6 Sur 24 Sur 0 -- -- 79
2020-07-10 21:00:00 25.8 11 Sudeste 23 Sudeste 0 -- -- 64
2020-07-10 20:00:00 28 13 Sudeste 24 Este 0 -- -- 56
2020-07-10 19:00:00 31.5 11 Sudeste 24 Sudeste 0 -- -- 38
2020-07-10 18:00:00 31 16 Sudeste 33 Sudeste 0 -- -- 33
2020-07-10 17:00:00 30.2 22 Sur 35 Sur 0 -- -- 36
2020-07-10 16:00:00 30.3 9 Nordeste 25 Sudoeste 0 -- -- 41
2020-07-10 15:00:00 29.8 17 Sur 44 Sur 0 -- -- 47
2020-07-10 14:00:00 27.7 26 Sur 53 Sur 0 -- -- 56
2020-07-10 13:00:00 29.4 18 Sudeste 36 Este 0 -- -- 45
2020-07-10 12:00:00 28.6 20 Este 34 Este 0 -- -- 49
2020-07-10 11:00:00 27.3 9 Este 32 Nordeste 0 -- -- 54
2020-07-10 10:00:00 23.9 11 Sudeste 25 Sudeste 0 -- -- 75
2020-07-10 09:00:00 22.8 15 Sudeste 28 Sur 0 -- -- 85
2020-07-10 08:00:00 21.7 0 Calma 9 Nordeste 0 -- -- 87
2020-07-10 07:00:00 21.3 6 Nordeste 9 Nordeste 0 -- -- 89
2020-07-10 06:00:00 20.2 3 Noroeste 8 Sudoeste 0 -- -- 89
2020-07-10 05:00:00 20.4 3 Sur 5 Sur 0 -- -- 87
2020-07-10 04:00:00 20.5 4 Sudoeste 9 Sudoeste 0 -- -- 88
2020-07-10 03:00:00 20.2 5 Oeste 7 Oeste 0 -- -- 87
2020-07-10 02:00:00 21.2 0 Calma 7 Oeste 0 -- -- 84
2020-07-10 01:00:00 22 3 Sudeste 12 Sudeste 0 -- -- 81
2020-07-10 00:00:00 22.8 4 Sudeste 16 Sudeste 0 -- -- 78
2020-07-09 23:00:00 22.9 8 Sudeste 23 Este 0 -- -- 76
2020-07-09 22:00:00 23.7 15 Este 25 Nordeste 0 -- -- 66
2020-07-09 21:00:00 24.5 14 Este 23 Este 0 -- -- 64
2020-07-09 20:00:00 26.7 11 Sudeste 24 Este 0 -- -- 53
2020-07-09 19:00:00 27.6 14 Sur 25 Sur 0 -- -- 55
2020-07-09 18:00:00 28.4 20 Sur 29 Sudoeste 0 -- -- 53
2020-07-09 17:00:00 31.3 13 Este 30 Nordeste 0 -- -- 43
2020-07-09 16:00:00 30.7 13 Nordeste 25 Nordeste 0 -- -- 44
2020-07-09 15:00:00 31 8 Norte 19 Nordeste 0 -- -- 42
2020-07-09 14:00:00 30 15 Nordeste 30 Nordeste 0 -- -- 36
2020-07-09 13:00:00 29.1 16 Nordeste 26 Norte 0 -- -- 51
2020-07-09 12:00:00 28.7 12 Nordeste 19 Nordeste 0 -- -- 56
2020-07-09 11:00:00 29.9 7 Noroeste 15 Norte 0 -- -- 44
2020-07-09 10:00:00 27.9 8 Sudoeste 14 Sudoeste 0 -- -- 48
2020-07-09 09:00:00 26.1 5 Sudeste 11 Sudeste 0 -- -- 54
2020-07-09 08:00:00 23.2 5 Sudeste 12 Sur 0 -- -- 70
2020-07-09 07:00:00 20.9 7 Sur 13 Sur 0 -- -- 83
2020-07-09 06:00:00 20.9 8 Sur 13 Sur 0 -- -- 79
2020-07-09 05:00:00 19.1 5 Sudoeste 13 Este 0 -- -- 87
2020-07-09 04:00:00 19.2 0 Calma 4 Oeste 0 -- -- 82
2020-07-09 03:00:00 19 0 Calma 3 Sudeste 0 -- -- 80
2020-07-09 02:00:00 19.7 0 Calma 3 Sudoeste 0 -- -- 79
2020-07-09 01:00:00 20.4 0 Calma 2 Nordeste 0 -- -- 72
2020-07-09 00:00:00 21.7 0 Calma 7 Sudoeste 0 -- -- 69
2020-07-08 23:00:00 21.3 0 Calma 7 Oeste 0 -- -- 72
2020-07-08 22:00:00 21.6 5 Oeste 8 Nordeste 0 -- -- 69
2020-07-08 21:00:00 23.7 4 Norte 10 Norte 0 -- -- 61
2020-07-08 20:00:00 25.8 6 Nordeste 17 Nordeste 0 -- -- 54
2020-07-08 19:00:00 26.7 12 Nordeste 17 Nordeste 0 -- -- 49
2020-07-08 18:00:00 27.6 11 Norte 21 Noroeste 0 -- -- 45
2020-07-08 17:00:00 27.2 14 Norte 25 Norte 0 -- -- 46
2020-07-08 16:00:00 28.4 14 Norte 26 Norte 0 -- -- 44
2020-07-08 15:00:00 27.9 17 Noroeste 25 Norte 0 -- -- 39
2020-07-08 14:00:00 28.1 16 Norte 26 Noroeste 0 -- -- 40
2020-07-08 13:00:00 27.6 16 Norte 26 Norte 0 -- -- 38
2020-07-08 12:00:00 26.7 16 Norte 26 Norte 0 -- -- 48
2020-07-08 11:00:00 26.7 15 Norte 26 Nordeste 0 -- -- 51
2020-07-08 10:00:00 25.9 14 Norte 27 Norte 0 -- -- 56
2020-07-08 09:00:00 24.7 17 Norte 25 Norte 0 -- -- 64
2020-07-08 08:00:00 23.3 5 Norte 9 Norte 0 -- -- 74
2020-07-08 07:00:00 20.4 0 Calma 5 Nordeste 0 -- -- 83
2020-07-08 06:00:00 19.2 3 Norte 6 Noroeste 0 -- -- 81
2020-07-08 05:00:00 19.2 2 Norte 5 Sudoeste 0 -- -- 83
2020-07-08 04:00:00 19.6 4 Sudoeste 6 Sudoeste 0 -- -- 82
2020-07-08 03:00:00 19.5 4 Sudoeste 5 Sudoeste 0 -- -- 81
2020-07-08 02:00:00 19.4 4 Sur 6 Oeste 0 -- -- 77
2020-07-08 01:00:00 19.6 0 Calma 6 Sudoeste 0 -- -- 72
2020-07-08 00:00:00 20 2 Oeste 5 Sudoeste 0 -- -- 70
2020-07-07 23:00:00 20.4 0 Calma 3 Oeste 0 -- -- 70
2020-07-07 22:00:00 21.7 2 Norte 10 Nordeste 0 -- -- 64
2020-07-07 21:00:00 23 7 Norte 15 Norte 0 -- -- 61
2020-07-07 20:00:00 24.9 10 Norte 18 Norte 0 -- -- 58
2020-07-07 19:00:00 24.7 11 Norte 22 Norte 0 -- -- 59
2020-07-07 18:00:00 26 14 Norte 24 Norte 0 -- -- 55
2020-07-07 17:00:00 27 13 Norte 22 Norte 0 -- -- 51
2020-07-07 16:00:00 26.9 13 Norte 24 Norte 0 -- -- 49
2020-07-07 15:00:00 27.5 12 Norte 28 Nordeste 0 -- -- 47
2020-07-07 14:00:00 26.6 17 Nordeste 29 Nordeste 0 -- -- 51
2020-07-07 13:00:00 26.2 12 Norte 27 Norte 0 -- -- 55
2020-07-07 12:00:00 26.1 15 Norte 28 Norte 0 -- -- 54
2020-07-07 11:00:00 25.3 16 Norte 28 Norte 0 -- -- 57
2020-07-07 10:00:00 24.4 21 Norte 30 Norte 0 -- -- 58
2020-07-07 09:00:00 23.8 18 Norte 33 Norte 0 -- -- 60
2020-07-07 08:00:00 23.1 19 Norte 28 Nordeste 0 -- -- 63
2020-07-07 07:00:00 22.1 12 Norte 28 Norte 0 -- -- 66
2020-07-07 06:00:00 22.1 18 Norte 32 Norte 0 -- -- 62
2020-07-07 05:00:00 22.4 20 Norte 37 Norte 0 -- -- 57
2020-07-07 04:00:00 22.7 26 Norte 44 Norte 0 -- -- 60
2020-07-07 03:00:00 22.9 18 Norte 32 Noroeste 0 -- -- 64
2020-07-07 02:00:00 22.7 11 Norte 26 Norte 0 -- -- 71
2020-07-07 01:00:00 22 8 Norte 14 Norte 0 -- -- 79
2020-07-07 00:00:00 22.3 5 Norte 10 Norte 0 -- -- 80
2020-07-06 23:00:00 22.2 6 Norte 12 Norte 0 -- -- 80
2020-07-06 22:00:00 22.6 10 Norte 23 Norte 0 -- -- 79
2020-07-06 21:00:00 23.3 16 Norte 24 Noroeste 0 -- -- 75
2020-07-06 20:00:00 24.7 18 Norte 25 Norte 0 -- -- 69
2020-07-06 19:00:00 25.9 17 Norte 27 Norte 0 -- -- 64
2020-07-06 18:00:00 26 20 Norte 30 Norte 0 -- -- 64
2020-07-06 17:00:00 27.2 20 Noroeste 34 Norte 0 -- -- 56
2020-07-06 16:00:00 28.3 21 Norte 31 Norte 0 -- -- 51
2020-07-06 15:00:00 28.8 18 Norte 37 Norte 0 -- -- 46
2020-07-06 14:00:00 26.8 26 Norte 41 Norte 0 -- -- 61
2020-07-06 13:00:00 26.8 26 Norte 42 Norte 0 -- -- 59
2020-07-06 12:00:00 26.4 27 Norte 45 Norte 0 -- -- 61
2020-07-06 11:00:00 26.5 27 Norte 40 Noroeste 0 -- -- 63
2020-07-06 10:00:00 27.2 20 Norte 38 Norte 0 -- -- 54
2020-07-06 09:00:00 26 18 Noroeste 31 Noroeste 0 -- -- 58
2020-07-06 08:00:00 24.8 17 Noroeste 25 Noroeste 0 -- -- 73
2020-07-06 07:00:00 22.9 8 Noroeste 18 Noroeste 0 -- -- 79
2020-07-06 06:00:00 22.4 6 Noroeste 14 Noroeste 0 -- -- 80
2020-07-06 05:00:00 22.5 6 Noroeste 19 Noroeste 0 -- -- 81
2020-07-06 04:00:00 22.4 6 Noroeste 17 Noroeste 0 -- -- 80
2020-07-06 03:00:00 22.7 8 Noroeste 19 Noroeste 0 -- -- 80
2020-07-06 02:00:00 22.4 8 Oeste 16 Oeste 0 -- -- 83
2020-07-06 01:00:00 22.2 4 Oeste 12 Sudoeste 0 -- -- 83
2020-07-06 00:00:00 22.3 4 Oeste 7 Oeste 0 -- -- 82
2020-07-05 23:00:00 22.7 3 Oeste 9 Noroeste 0 -- -- 80
2020-07-05 22:00:00 23.5 7 Oeste 15 Oeste 0 -- -- 79
2020-07-05 21:00:00 25.7 10 Oeste 15 Oeste 0 -- -- 62
2020-07-05 20:00:00 28.2 9 Noroeste 19 Norte 0 -- -- 47
2020-07-05 19:00:00 29 12 Norte 23 Norte 0 -- -- 42
2020-07-05 18:00:00 29.1 14 Norte 28 Oeste 0 -- -- 36
2020-07-05 17:00:00 30.1 15 Noroeste 29 Oeste 0 -- -- 32
2020-07-05 16:00:00 29.1 15 Norte 30 Norte 0 -- -- 40
2020-07-05 15:00:00 28.6 19 Norte 32 Norte 0 -- -- 48
2020-07-05 14:00:00 28.3 19 Norte 30 Norte 0 -- -- 53
2020-07-05 13:00:00 28.1 18 Norte 30 Norte 0 -- -- 49
2020-07-05 12:00:00 27.6 17 Norte 31 Norte 0 -- -- 54
2020-07-05 11:00:00 26.6 15 Noroeste 23 Norte 0 -- -- 54
2020-07-05 10:00:00 26 15 Norte 24 Norte 0 -- -- 62
2020-07-05 09:00:00 25 9 Norte 18 Norte 0 -- -- 74
2020-07-05 08:00:00 22.8 8 Noroeste 16 Oeste 0 -- -- 85
2020-07-05 07:00:00 20.6 5 Oeste 8 Oeste 0 -- -- 90
2020-07-05 06:00:00 19.9 4 Oeste 8 Oeste 0 -- -- 90
2020-07-05 05:00:00 19.8 3 Noroeste 9 Sudoeste 0 -- -- 89
2020-07-05 04:00:00 19.8 3 Sudoeste 9 Oeste 0 -- -- 88
2020-07-05 03:00:00 20 3 Oeste 6 Noroeste 0 -- -- 86
2020-07-05 02:00:00 19.7 4 Oeste 6 Sudoeste 0 -- -- 82
2020-07-05 01:00:00 20.6 5 Sudoeste 12 Sudoeste 0 -- -- 81
2020-07-05 00:00:00 20.6 9 Sudoeste 13 Sudoeste 0 -- -- 79
2020-07-04 23:00:00 20.3 2 Sudoeste 4 Sudoeste 0 -- -- 71
2020-07-04 22:00:00 21 0 Calma 6 Norte 0 -- -- 67
2020-07-04 21:00:00 22.8 5 Norte 10 Nordeste 0 -- -- 60
2020-07-04 20:00:00 24.1 9 Nordeste 17 Norte 0 -- -- 56
2020-07-04 19:00:00 24.2 10 Nordeste 16 Nordeste 0 -- -- 55
2020-07-04 18:00:00 25.2 9 Norte 26 Nordeste 0 -- -- 52
2020-07-04 17:00:00 24.8 14 Norte 29 Norte 0 -- -- 53
2020-07-04 16:00:00 25.9 14 Norte 27 Noroeste 0 -- -- 50
2020-07-04 15:00:00 25.6 17 Norte 30 Norte 0 -- -- 51
2020-07-04 14:00:00 26.1 16 Norte 28 Norte 0 -- -- 49
2020-07-04 13:00:00 25.8 11 Norte 24 Norte 0 -- -- 50
2020-07-04 12:00:00 24 15 Noroeste 26 Norte 0 -- -- 54
2020-07-04 11:00:00 23.4 15 Norte 32 Nordeste 0 -- -- 54
2020-07-04 10:00:00 23.2 18 Norte 30 Norte 0 -- -- 55
2020-07-04 09:00:00 22.2 13 Norte 25 Norte 0 -- -- 59
2020-07-04 08:00:00 21.8 13 Norte 26 Norte 0 -- -- 62
2020-07-04 07:00:00 21.8 11 Norte 21 Norte 0 -- -- 60
2020-07-04 06:00:00 21.9 8 Norte 15 Nordeste 0 -- -- 56
2020-07-04 05:00:00 21.7 7 Norte 15 Norte 0 -- -- 61
2020-07-04 04:00:00 21.7 12 Norte 27 Norte 0 -- -- 64
2020-07-04 03:00:00 22.1 16 Norte 25 Norte 0 -- -- 62
2020-07-04 02:00:00 21.8 11 Norte 24 Norte 0 -- -- 63
2020-07-04 01:00:00 21.8 14 Norte 26 Norte 0 -- -- 59
2020-07-04 00:00:00 21.8 15 Norte 24 Nordeste 0 -- -- 58
2020-07-03 23:00:00 21.6 13 Norte 21 Norte 0 -- -- 58
2020-07-03 22:00:00 21.7 12 Norte 21 Norte 0 -- -- 59
2020-07-03 21:00:00 22.3 13 Norte 27 Norte 0 -- -- 57
2020-07-03 20:00:00 23.3 17 Norte 31 Norte 0 -- -- 53
2020-07-03 19:00:00 23.7 23 Norte 36 Norte 0 -- -- 53
2020-07-03 18:00:00 24.1 21 Norte 38 Norte 0 -- -- 53
2020-07-03 17:00:00 24 26 Norte 42 Norte 0 -- -- 52
2020-07-03 16:00:00 24 31 Norte 45 Norte 0 -- -- 47
2020-07-03 15:00:00 24.3 32 Norte 48 Nordeste 0 -- -- 45
2020-07-03 14:00:00 24 30 Norte 48 Norte 0 -- -- 51
2020-07-03 13:00:00 23.6 31 Norte 45 Norte 0 -- -- 57
2020-07-03 12:00:00 23 31 Norte 50 Nordeste 0 -- -- 64
2020-07-03 11:00:00 22.8 33 Nordeste 47 Norte 0 -- -- 62
2020-07-03 10:00:00 23.4 28 Nordeste 48 Norte 0 -- -- 59
2020-07-03 09:00:00 22.8 31 Norte 45 Nordeste 0 -- -- 65
2020-07-03 08:00:00 22.6 26 Nordeste 41 Nordeste 0 -- -- 66
2020-07-03 07:00:00 22.6 20 Nordeste 37 Nordeste 0 -- -- 66
2020-07-03 06:00:00 22.1 20 Nordeste 35 Nordeste 0 -- -- 70
2020-07-03 05:00:00 22.4 21 Nordeste 35 Nordeste 0 -- -- 67
2020-07-03 04:00:00 22.4 17 Nordeste 35 Nordeste 0 -- -- 75
2020-07-03 03:00:00 22.5 17 Norte 28 Norte 0 -- -- 78
2020-07-03 02:00:00 22.9 17 Norte 26 Norte 0 -- -- 80
2020-07-03 01:00:00 23.2 14 Nordeste 23 Nordeste 0 -- -- 80
2020-07-03 00:00:00 23 16 Nordeste 27 Nordeste 0 -- -- 80
2020-07-02 23:00:00 23.4 18 Nordeste 25 Nordeste 0 -- -- 82
2020-07-02 22:00:00 24 14 Nordeste 21 Nordeste 0 -- -- 82
2020-07-02 21:00:00 24.5 10 Nordeste 18 Nordeste 0 -- -- 76
2020-07-02 20:00:00 26.5 13 Nordeste 21 Nordeste 0 -- -- 67
2020-07-02 19:00:00 28.2 11 Nordeste 19 Nordeste 0 -- -- 64
2020-07-02 18:00:00 28.4 13 Nordeste 26 Nordeste 0 -- -- 65
2020-07-02 17:00:00 27.6 17 Nordeste 26 Nordeste 0 -- -- 67
2020-07-02 16:00:00 28.1 16 Nordeste 28 Este 0 -- -- 65
2020-07-02 15:00:00 27.4 14 Nordeste 27 Este 0 -- -- 67
2020-07-02 14:00:00 28.6 16 Nordeste 28 Nordeste 0 -- -- 63
2020-07-02 13:00:00 29.1 15 Nordeste 25 Nordeste 0 -- -- 59
2020-07-02 12:00:00 28.9 13 Nordeste 24 Nordeste 0 -- -- 60
2020-07-02 11:00:00 28.1 12 Nordeste 23 Este 0 -- -- 58
2020-07-02 10:00:00 27.7 10 Este 17 Nordeste 0 -- -- 58
2020-07-02 09:00:00 25.8 8 Nordeste 15 Nordeste 0 -- -- 73
2020-07-02 08:00:00 23.8 6 Nordeste 12 Nordeste 0 -- -- 91
2020-07-02 07:00:00 21.9 6 Norte 14 Nordeste 0 -- -- 94
2020-07-02 06:00:00 21.6 8 Nordeste 11 Nordeste 0 -- -- 94
2020-07-02 05:00:00 21.9 8 Nordeste 13 Norte 0 -- -- 93
2020-07-02 04:00:00 21.6 2 Nordeste 8 Norte 0 -- -- 93
2020-07-02 03:00:00 21.5 5 Oeste 6 Noroeste 0 -- -- 93
2020-07-02 02:00:00 22.5 4 Noroeste 8 Norte 0 -- -- 92
2020-07-02 01:00:00 22.8 2 Norte 9 Norte 0 -- -- 91
2020-07-02 00:00:00 22.6 5 Norte 13 Norte 0 -- -- 90
2020-07-01 23:00:00 23.3 6 Norte 12 Nordeste 0 -- -- 88
2020-07-01 22:00:00 23.7 5 Norte 13 Norte 0 -- -- 85
2020-07-01 21:00:00 24.7 11 Norte 19 Norte 0 -- -- 78
2020-07-01 20:00:00 26.5 15 Norte 25 Norte 0 -- -- 68
2020-07-01 19:00:00 27.9 15 Norte 29 Norte 0 -- -- 64
2020-07-01 18:00:00 28.3 18 Norte 32 Norte 0 -- -- 61
2020-07-01 17:00:00 28.6 20 Norte 32 Norte 0 -- -- 62
2020-07-01 16:00:00 30.1 15 Nordeste 26 Nordeste 0 -- -- 59
2020-07-01 15:00:00 30.6 17 Nordeste 26 Este 0 -- -- 57
2020-07-01 14:00:00 31.1 18 Este 39 Este 0 -- -- 48
2020-07-01 13:00:00 30.6 23 Sudeste 41 Este 0 -- -- 42
2020-07-01 12:00:00 31 21 Sudeste 41 Este 0 -- -- 40
2020-07-01 11:00:00 30 23 Este 40 Este 0 -- -- 45
2020-07-01 10:00:00 28.9 19 Este 37 Este 0 -- -- 55
2020-07-01 09:00:00 26.8 20 Este 33 Este 0 -- -- 64
2020-07-01 08:00:00 24.6 5 Norte 27 Este 0 -- -- 80
2020-07-01 07:00:00 22.3 2 Noroeste 9 Oeste 0 -- -- 88
2020-07-01 06:00:00 22.5 6 Nordeste 13 Nordeste 0 -- -- 87
2020-07-01 05:00:00 22.8 9 Este 22 Sudeste 0 -- -- 85
2020-07-01 04:00:00 22.6 5 Norte 21 Este 0 -- -- 85
2020-07-01 03:00:00 22.7 6 Este 17 Este 0 -- -- 85
2020-07-01 02:00:00 22.5 7 Sudeste 18 Sudeste 0 -- -- 89
2020-07-01 01:00:00 22.7 13 Sur 26 Sudeste 0 -- -- 87
2020-07-01 00:00:00 22.9 10 Sudeste 24 Sur 0 -- -- 86
2020-06-30 23:00:00 23.2 17 Sudeste 24 Sudeste 0 -- -- 84
2020-06-30 22:00:00 23.5 10 Sudeste 20 Sudeste 0 -- -- 81
2020-06-30 21:00:00 24.8 12 Sudeste 22 Sudeste 0 -- -- 75
2020-06-30 20:00:00 27.2 14 Sudeste 23 Sudeste 0 -- -- 65
2020-06-30 19:00:00 29.5 12 Sudeste 22 Sudeste 0 -- -- 55
2020-06-30 18:00:00 31 14 Sur 25 Sudoeste 0 -- -- 39
2020-06-30 17:00:00 30.7 16 Sur 33 Sudoeste 0 -- -- 41
2020-06-30 16:00:00 31.2 16 Sur 33 Este 0 -- -- 50
2020-06-30 15:00:00 30.7 22 Sudeste 37 Este 0 -- -- 52
2020-06-30 14:00:00 30.3 19 Este 32 Este 0 -- -- 54
2020-06-30 13:00:00 30.6 15 Sudeste 23 Este 0 -- -- 52
2020-06-30 12:00:00 29.4 12 Este 21 Este 0 -- -- 54
2020-06-30 11:00:00 28 13 Sudeste 21 Sudeste 0 -- -- 58
2020-06-30 10:00:00 27.2 12 Este 19 Este 0 -- -- 62
2020-06-30 09:00:00 25.7 9 Este 17 Nordeste 0 -- -- 69
2020-06-30 08:00:00 23.6 3 Nordeste 8 Nordeste 0 -- -- 86
2020-06-30 07:00:00 20.2 2 Norte 5 Nordeste 0 -- -- 91
2020-06-30 06:00:00 19.8 2 Norte 5 Oeste 0 -- -- 91
2020-06-30 05:00:00 20.1 0 Calma 3 Sur 0 -- -- 91
2020-06-30 04:00:00 20.1 0 Calma 0 Calma 0 -- -- 90
2020-06-30 03:00:00 20.5 0 Calma 0 Calma 0 -- -- 89
2020-06-30 02:00:00 20.4 0 Calma 6 Nordeste 0 -- -- 88
2020-06-30 01:00:00 20.9 2 Nordeste 4 Nordeste 0 -- -- 86
2020-06-30 00:00:00 21.2 3 Oeste 5 Nordeste 0 -- -- 85
2020-06-29 23:00:00 22.4 0 Calma 9 Nordeste 0 -- -- 81
2020-06-29 22:00:00 23 2 Nordeste 15 Este 0 -- -- 78
2020-06-29 21:00:00 24.2 9 Este 19 Este 0 -- -- 72
2020-06-29 20:00:00 26.4 9 Este 21 Nordeste 0 -- -- 67
2020-06-29 19:00:00 26.8 15 Nordeste 24 Nordeste 0 -- -- 64
2020-06-29 18:00:00 27.3 17 Nordeste 25 Nordeste 0 -- -- 62
2020-06-29 17:00:00 27.9 14 Nordeste 25 Nordeste 0 -- -- 58
2020-06-29 16:00:00 28.4 14 Nordeste 26 Nordeste 0 -- -- 55
2020-06-29 15:00:00 27.7 16 Nordeste 27 Nordeste 0 -- -- 56
2020-06-29 14:00:00 28.8 14 Nordeste 28 Nordeste 0 -- -- 50
2020-06-29 13:00:00 27.9 18 Nordeste 28 Nordeste 0 -- -- 59
2020-06-29 12:00:00 28.6 14 Nordeste 23 Norte 0 -- -- 48
2020-06-29 11:00:00 27.7 14 Nordeste 22 Nordeste 0 -- -- 59
2020-06-29 10:00:00 27.9 10 Nordeste 16 Nordeste 0 -- -- 62
2020-06-29 09:00:00 26.2 6 Nordeste 11 Nordeste 0 -- -- 74
2020-06-29 08:00:00 24.4 0 Calma 3 Sur 0 -- -- 88
2020-06-29 07:00:00 21.5 3 Sur 4 Sur 0 -- -- 93
2020-06-29 06:00:00 21.6 0 Calma 8 Sudoeste 0 -- -- 93
2020-06-29 05:00:00 21.4 4 Sur 7 Sudoeste 0 -- -- 92
2020-06-29 04:00:00 21.7 6 Sudoeste 12 Sudoeste 0 -- -- 91
2020-06-29 03:00:00 21.6 6 Sudoeste 13 Sudoeste 0 -- -- 91
2020-06-29 02:00:00 21.9 10 Sur 14 Sudoeste 0 -- -- 90
2020-06-29 01:00:00 22.1 9 Sur 13 Sudoeste 0 -- -- 89
2020-06-29 00:00:00 22.2 9 Sudoeste 12 Sudoeste 0 -- -- 88
2020-06-28 23:00:00 22.5 7 Sudoeste 10 Sudoeste 0 -- -- 86
2020-06-28 22:00:00 23 8 Sudoeste 17 Sur 0 -- -- 84
2020-06-28 21:00:00 24.1 13 Sur 19 Sur 0 -- -- 79
2020-06-28 20:00:00 27 15 Sudoeste 19 Sur 0 -- -- 68
2020-06-28 19:00:00 28.6 10 Nordeste 17 Nordeste 0 -- -- 61
2020-06-28 18:00:00 29.2 10 Nordeste 19 Nordeste 0 -- -- 59
2020-06-28 17:00:00 29 6 Sur 19 Sur 0 -- -- 60
2020-06-28 16:00:00 26.9 14 Sudoeste 26 Sudoeste 0 -- -- 66
2020-06-28 15:00:00 29.3 15 Sur 28 Sudoeste 0 -- -- 59
2020-06-28 14:00:00 29.6 10 Norte 21 Nordeste 0 -- -- 51
2020-06-28 13:00:00 27.9 11 Nordeste 20 Nordeste 0 -- -- 52
2020-06-28 12:00:00 27.4 10 Nordeste 21 Norte 0 -- -- 53
2020-06-28 11:00:00 26.3 12 Norte 22 Norte 0 -- -- 64
2020-06-28 10:00:00 24.9 12 Norte 19 Norte 0 -- -- 72
2020-06-28 09:00:00 24.8 8 Norte 13 Norte 0 -- -- 74
2020-06-28 08:00:00 22.1 0 Calma 3 Sudoeste 0 -- -- 88
2020-06-28 07:00:00 20.1 0 Calma 4 Oeste 0 -- -- 92
2020-06-28 06:00:00 19.2 2 Noroeste 3 Noroeste 0 -- -- 92
2020-06-28 05:00:00 19.7 2 Sur 3 Sudoeste 0 -- -- 91
2020-06-28 04:00:00 19.8 0 Calma 5 Sur 0 -- -- 90
2020-06-28 03:00:00 20 3 Sur 6 Sudoeste 0 -- -- 90
2020-06-28 02:00:00 20.2 4 Sur 5 Sur 0 -- -- 88
2020-06-28 01:00:00 20.1 0 Calma 4 Oeste 0 -- -- 87
2020-06-28 00:00:00 20.6 0 Calma 4 Norte 0 -- -- 84
2020-06-27 23:00:00 21.9 3 Sudeste 10 Sudeste 0 -- -- 81
2020-06-27 22:00:00 22.7 4 Sudeste 10 Sudeste 0 -- -- 77
2020-06-27 21:00:00 24.4 4 Este 16 Este 0 -- -- 68
2020-06-27 20:00:00 26 10 Nordeste 16 Nordeste 0 -- -- 62
2020-06-27 19:00:00 26.9 8 Nordeste 21 Este 0 -- -- 59
2020-06-27 18:00:00 26.7 13 Nordeste 27 Norte 0 -- -- 61
2020-06-27 17:00:00 27.2 9 Noroeste 23 Sur 0 -- -- 60
2020-06-27 16:00:00 26.7 12 Sur 22 Sudoeste 0 -- -- 65
2020-06-27 15:00:00 27.4 13 Sudeste 23 Sudeste 0 -- -- 62
2020-06-27 14:00:00 27.7 6 Sudeste 22 Sur 0 -- -- 59
2020-06-27 13:00:00 26.9 10 Sur 21 Sur 0 -- -- 63
2020-06-27 12:00:00 26.4 14 Sur 22 Sur 0 -- -- 64
2020-06-27 11:00:00 26.8 12 Sur 24 Sudeste 0 -- -- 61
2020-06-27 10:00:00 26 15 Sudeste 25 Sur 0 -- -- 63
2020-06-27 09:00:00 24.2 10 Sudeste 24 Sudeste 0 -- -- 75
2020-06-27 08:00:00 22.5 7 Sudeste 18 Este 0 -- -- 82
2020-06-27 07:00:00 21.6 15 Este 22 Este 0 -- -- 87
2020-06-27 06:00:00 20.4 5 Sudeste 10 Sudeste 0 -- -- 90
2020-06-27 05:00:00 20.5 4 Sudeste 8 Sudeste 0 -- -- 90
2020-06-27 04:00:00 20.3 2 Sudoeste 5 Sur 0 -- -- 89
2020-06-27 03:00:00 21 3 Sudeste 10 Sudeste 0 -- -- 88
2020-06-27 02:00:00 21.2 4 Sudeste 12 Sur 0 -- -- 87
2020-06-27 01:00:00 21.4 8 Sur 19 Sudeste 0 -- -- 86
2020-06-27 00:00:00 21.7 10 Sur 16 Sur 0 -- -- 85
2020-06-26 23:00:00 22 6 Sur 14 Sur 0 -- -- 83
2020-06-26 22:00:00 22.6 5 Sur 17 Sudeste 0 -- -- 77
2020-06-26 21:00:00 24.6 9 Este 18 Este 0 -- -- 62
2020-06-26 20:00:00 28.3 10 Este 18 Sudeste 0 -- -- 42
2020-06-26 19:00:00 29 12 Sur 23 Sur 0 -- -- 46
2020-06-26 18:00:00 29.9 9 Sur 23 Sur 0 -- -- 49
2020-06-26 17:00:00 29.1 17 Sur 33 Sur 0 -- -- 52
2020-06-26 16:00:00 32 17 Este 31 Sudeste 0 -- -- 27
2020-06-26 15:00:00 31.6 23 Sudeste 31 Sudeste 0 -- -- 27
2020-06-26 14:00:00 31.4 18 Este 28 Este 0 -- -- 33
2020-06-26 13:00:00 30.7 15 Sudeste 35 Este 0 -- -- 37
2020-06-26 12:00:00 31.3 18 Sudeste 32 Este 0 -- -- 28
2020-06-26 11:00:00 30.5 17 Sudeste 33 Este 0 -- -- 33
2020-06-26 10:00:00 29 12 Nordeste 23 Este 0 -- -- 40
2020-06-26 09:00:00 26.4 3 Oeste 7 Nordeste 0 -- -- 65
2020-06-26 08:00:00 21.4 3 Nordeste 6 Norte 0 -- -- 93
2020-06-26 07:00:00 19.4 3 Norte 5 Norte 0 -- -- 93
2020-06-26 06:00:00 19.6 3 Oeste 6 Oeste 0 -- -- 91
2020-06-26 05:00:00 19.9 2 Noroeste 5 Oeste 0 -- -- 90
2020-06-26 04:00:00 20 4 Sudoeste 12 Sur 0 -- -- 86
2020-06-26 03:00:00 20.5 0 Calma 8 Norte 0 -- -- 72
2020-06-26 02:00:00 21.3 5 Norte 9 Noroeste 0 -- -- 60
2020-06-26 01:00:00 21.4 5 Oeste 9 Oeste 0 -- -- 51
2020-06-26 00:00:00 20.3 7 Oeste 8 Oeste 0 -- -- 52
2020-06-25 23:00:00 21.4 5 Norte 8 Nordeste 0 -- -- 49
2020-06-25 22:00:00 24.3 5 Nordeste 10 Nordeste 0 -- -- 36
2020-06-25 21:00:00 25.8 5 Este 24 Este 0 -- -- 35
2020-06-25 20:00:00 27.5 13 Sudeste 28 Este 0 -- -- 35
2020-06-25 19:00:00 28.6 17 Sudeste 33 Sudeste 0 -- -- 36
2020-06-25 18:00:00 29.4 18 Sudeste 33 Este 0 -- -- 37
2020-06-25 17:00:00 30.4 20 Este 32 Este 0 -- -- 34
2020-06-25 16:00:00 31.4 18 Este 30 Este 0 -- -- 33
2020-06-25 15:00:00 31.9 14 Este 31 Este 0 -- -- 32
2020-06-25 14:00:00 32.2 17 Sudeste 32 Este 0 -- -- 28
2020-06-25 13:00:00 31.7 14 Sudeste 32 Este 0 -- -- 30
2020-06-25 12:00:00 31.4 13 Sudeste 25 Sudeste 0 -- -- 29
2020-06-25 11:00:00 30.7 12 Este 20 Este 0 -- -- 34
2020-06-25 10:00:00 29.1 9 Sudeste 15 Sudeste 0 -- -- 37
2020-06-25 09:00:00 28 7 Este 16 Este 0 -- -- 35
2020-06-25 08:00:00 24.8 8 Sur 13 Sur 0 -- -- 50
2020-06-25 07:00:00 21.9 9 Sur 15 Sur 0 -- -- 68
2020-06-25 06:00:00 21.2 8 Sur 15 Sudeste 0 -- -- 69
2020-06-25 05:00:00 21 12 Sur 17 Sudeste 0 -- -- 79
2020-06-25 04:00:00 20.6 10 Sur 18 Sur 0 -- -- 83
2020-06-25 03:00:00 21.3 11 Sur 15 Sur 0 -- -- 74
2020-06-25 02:00:00 21.4 8 Sur 16 Sudeste 0 -- -- 72
2020-06-25 01:00:00 21.7 10 Sur 13 Sur 0 -- -- 69
2020-06-25 00:00:00 22.1 8 Sur 10 Sur 0 -- -- 54
2020-06-24 23:00:00 20.8 3 Oeste 10 Sudeste 0 -- -- 56
2020-06-24 22:00:00 22.7 6 Sur 12 Sudeste 0 -- -- 52
2020-06-24 21:00:00 25.3 9 Sudeste 17 Sudeste 0 -- -- 38
2020-06-24 20:00:00 27.9 9 Sudeste 23 Este 0 -- -- 38
2020-06-24 19:00:00 29.6 12 Sudeste 22 Este 0 -- -- 37
2020-06-24 18:00:00 29.8 14 Sur 21 Sur 0 -- -- 38
2020-06-24 17:00:00 30.2 14 Sur 23 Sudoeste 0 -- -- 33
2020-06-24 16:00:00 30.4 13 Sudoeste 28 Sudoeste 0 -- -- 37
2020-06-24 15:00:00 29.8 19 Sudoeste 30 Sudeste 0 -- -- 42
2020-06-24 14:00:00 31 13 Sudeste 28 Nordeste 0 -- -- 36
2020-06-24 13:00:00 28.2 17 Nordeste 28 Nordeste 0 -- -- 55
2020-06-24 12:00:00 27.8 15 Norte 22 Nordeste 0 -- -- 50
2020-06-24 11:00:00 28.1 11 Este 25 Nordeste 0 -- -- 45
2020-06-24 10:00:00 26.7 16 Este 24 Este 0 -- -- 46
2020-06-24 09:00:00 24.4 11 Nordeste 16 Nordeste 0 -- -- 61
2020-06-24 08:00:00 22.9 3 Nordeste 8 Este 0 -- -- 75
2020-06-24 07:00:00 19.2 0 Calma 3 Oeste 0 -- -- 85
2020-06-24 06:00:00 18 2 Oeste 4 Oeste 0 -- -- 84
2020-06-24 05:00:00 18 0 Calma 4 Oeste 0 -- -- 79
2020-06-24 04:00:00 17.9 2 Sudoeste 3 Sudoeste 0 -- -- 77
2020-06-24 03:00:00 18.1 2 Sudoeste 6 Oeste 0 -- -- 78
2020-06-24 02:00:00 18.8 2 Oeste 6 Oeste 0 -- -- 80
2020-06-24 01:00:00 19.1 2 Oeste 9 Oeste 0 -- -- 85
2020-06-24 00:00:00 19.8 4 Noroeste 8 Oeste 0 -- -- 84
2020-06-23 23:00:00 21.3 5 Nordeste 12 Nordeste 0 -- -- 84
2020-06-23 22:00:00 22 6 Nordeste 11 Nordeste 0 -- -- 74
2020-06-23 21:00:00 24.1 6 Nordeste 14 Nordeste 0 -- -- 62
2020-06-23 20:00:00 25.9 9 Nordeste 15 Nordeste 0 -- -- 55
2020-06-23 19:00:00 27 9 Nordeste 16 Nordeste 0 -- -- 50
2020-06-23 18:00:00 27.8 9 Norte 19 Nordeste 0 -- -- 51
2020-06-23 17:00:00 27.6 13 Norte 23 Nordeste 0 -- -- 54
2020-06-23 16:00:00 28 13 Norte 22 Nordeste 0 -- -- 52
2020-06-23 15:00:00 27.6 15 Norte 21 Norte 0 -- -- 54
2020-06-23 14:00:00 27.6 11 Noroeste 23 Norte 0 -- -- 51
2020-06-23 13:00:00 26.6 13 Norte 25 Norte 0 -- -- 56
2020-06-23 12:00:00 27.2 12 Norte 26 Norte 0 -- -- 52
2020-06-23 11:00:00 26 17 Norte 24 Norte 0 -- -- 55
2020-06-23 10:00:00 25.3 17 Norte 23 Norte 0 -- -- 58
2020-06-23 09:00:00 24.2 16 Norte 25 Norte 0 -- -- 63
2020-06-23 08:00:00 22.9 11 Norte 18 Norte 0 -- -- 78
2020-06-23 07:00:00 21.2 3 Norte 13 Noroeste 0 -- -- 88
2020-06-23 06:00:00 20.6 7 Noroeste 19 Noroeste 0 -- -- 88
2020-06-23 05:00:00 20.6 5 Norte 15 Oeste 0 -- -- 83
2020-06-23 04:00:00 20.9 9 Noroeste 17 Noroeste 0 -- -- 82
2020-06-23 03:00:00 20.5 3 Oeste 9 Noroeste 0 -- -- 78
2020-06-23 02:00:00 20.8 3 Oeste 6 Sudoeste 0 -- -- 71
2020-06-23 01:00:00 19.8 2 Sur 6 Oeste 0 -- -- 73
2020-06-23 00:00:00 20.4 2 Norte 7 Noroeste 0 -- -- 74
2020-06-22 23:00:00 20.4 3 Noroeste 9 Noroeste 0 -- -- 78
2020-06-22 22:00:00 20.8 5 Norte 13 Norte 0 -- -- 78
2020-06-22 21:00:00 22.2 10 Norte 21 Noroeste 0 -- -- 70
2020-06-22 20:00:00 23.9 14 Norte 30 Norte 0 -- -- 61
2020-06-22 19:00:00 24.8 15 Norte 30 Norte 0 -- -- 57
2020-06-22 18:00:00 25 20 Norte 35 Norte 0 -- -- 53
2020-06-22 17:00:00 24.7 23 Norte 41 Norte 0 -- -- 55
2020-06-22 16:00:00 24.4 27 Nordeste 41 Noroeste 0 -- -- 56
2020-06-22 15:00:00 25.1 29 Norte 43 Norte 0 -- -- 54
2020-06-22 14:00:00 24.8 30 Norte 50 Norte 0 -- -- 58
2020-06-22 13:00:00 24.3 34 Norte 54 Norte 0 -- -- 61
2020-06-22 12:00:00 24.4 37 Norte 57 Norte 0 -- -- 60
2020-06-22 11:00:00 25 25 Norte 51 Norte 0 -- -- 59
2020-06-22 10:00:00 23.9 26 Norte 54 Norte 0 -- -- 62
2020-06-22 09:00:00 23.3 21 Norte 34 Norte 0 -- -- 66
2020-06-22 08:00:00 22.5 20 Norte 30 Norte 0 -- -- 69
2020-06-22 07:00:00 21.5 19 Norte 33 Norte 0 -- -- 71
2020-06-22 06:00:00 19.9 12 Norte 22 Norte 0 -- -- 81
2020-06-22 05:00:00 20 6 Norte 11 Noroeste 0 -- -- 82
2020-06-22 04:00:00 19.9 6 Norte 10 Norte 0 -- -- 78
2020-06-22 03:00:00 20 6 Norte 10 Noroeste 0 -- -- 75
2020-06-22 02:00:00 18.5 2 Sudoeste 4 Sur 0 -- -- 80
2020-06-22 01:00:00 20.1 4 Sudoeste 10 Sudoeste 0 -- -- 76
2020-06-22 00:00:00 19.7 5 Sudoeste 7 Sudoeste 0 -- -- 77
2020-06-21 23:00:00 19.5 3 Oeste 6 Oeste 0 -- -- 77
2020-06-21 22:00:00 20.9 2 Oeste 9 Norte 0 -- -- 77
2020-06-21 21:00:00 23 6 Norte 12 Nordeste 0 -- -- 72
2020-06-21 20:00:00 24.7 7 Norte 15 Norte 0 -- -- 68
2020-06-21 19:00:00 25.6 11 Norte 20 Norte 0 -- -- 66
2020-06-21 18:00:00 26.2 11 Norte 19 Norte 0 -- -- 62
2020-06-21 17:00:00 26.2 11 Norte 23 Norte 0 -- -- 59
2020-06-21 16:00:00 26.8 7 Norte 24 Norte 0 -- -- 53
2020-06-21 15:00:00 25.8 14 Norte 30 Norte 0 -- -- 55
2020-06-21 14:00:00 25 25 Norte 37 Norte 0 -- -- 53
2020-06-21 13:00:00 25.1 23 Norte 37 Norte 0 -- -- 54
2020-06-21 12:00:00 25.1 22 Norte 34 Norte 0 -- -- 56
2020-06-21 11:00:00 25.4 17 Norte 29 Norte 0 -- -- 51
2020-06-21 10:00:00 25.4 14 Norte 23 Norte 0 -- -- 51
2020-06-21 09:00:00 24.2 13 Norte 18 Norte 0 -- -- 61
2020-06-21 08:00:00 21.9 8 Norte 12 Noroeste 0 -- -- 86
2020-06-21 07:00:00 19.8 6 Norte 11 Noroeste 0 -- -- 91
2020-06-21 06:00:00 19.2 0 Calma 4 Noroeste 0 -- -- 91
2020-06-21 05:00:00 18.7 0 Calma 5 Noroeste 0 -- -- 89
2020-06-21 04:00:00 18.4 0 Calma 4 Sur 0 -- -- 91
2020-06-21 03:00:00 18.3 0 Calma 5 Sudoeste 0 -- -- 91
2020-06-21 02:00:00 18.5 4 Sudoeste 5 Sudoeste 0 -- -- 91
2020-06-21 01:00:00 18.7 5 Sudoeste 8 Oeste 0 -- -- 90
2020-06-21 00:00:00 19.2 0 Calma 4 Sur 0 -- -- 89
2020-06-20 23:00:00 19.8 3 Sur 6 Sur 0 -- -- 86
2020-06-20 22:00:00 20.7 3 Sudoeste 10 Sudoeste 0 -- -- 84
2020-06-20 21:00:00 21.9 9 Sudoeste 20 Sudoeste 0 -- -- 79
2020-06-20 20:00:00 23.4 14 Sudoeste 22 Sur 0 -- -- 70
2020-06-20 19:00:00 23.8 13 Sudoeste 22 Sur 0 -- -- 68
2020-06-20 18:00:00 24.2 15 Sudoeste 26 Sudoeste 0 -- -- 65
2020-06-20 17:00:00 24.7 16 Sur 28 Sudoeste 0 -- -- 65
2020-06-20 16:00:00 25.8 4 Este 14 Noroeste 0 -- -- 55
2020-06-20 15:00:00 26.4 6 Sudeste 18 Noroeste 0 -- -- 53
2020-06-20 14:00:00 27.1 12 Norte 22 Nordeste 0 -- -- 49
2020-06-20 13:00:00 26.1 8 Norte 23 Noroeste 0 -- -- 52
2020-06-20 12:00:00 26 12 Norte 22 Norte 0 -- -- 53
2020-06-20 11:00:00 25.1 9 Norte 19 Norte 0 -- -- 57
2020-06-20 10:00:00 24.3 9 Norte 19 Norte 0 -- -- 63
2020-06-20 09:00:00 23.4 10 Norte 18 Norte 0 -- -- 69
2020-06-20 08:00:00 22 8 Norte 14 Noroeste 0 -- -- 80
2020-06-20 07:00:00 19.7 4 Oeste 11 Noroeste 0 -- -- 88
2020-06-20 06:00:00 19 3 Oeste 11 Oeste 0 -- -- 88
2020-06-20 05:00:00 19.4 9 Noroeste 15 Oeste 0 -- -- 87
2020-06-20 04:00:00 19.1 6 Oeste 21 Oeste 0 -- -- 87
2020-06-20 03:00:00 19 12 Sudoeste 17 Oeste 0 -- -- 84
2020-06-20 02:00:00 18.5 5 Oeste 9 Sudoeste 0 -- -- 80
2020-06-20 01:00:00 18.5 3 Sur 6 Sudoeste 0 -- -- 77
2020-06-20 00:00:00 18.4 4 Sudoeste 10 Sudoeste 0 -- -- 75
2020-06-19 23:00:00 18.6 8 Sudoeste 9 Sur 0 -- -- 75
2020-06-19 22:00:00 19.7 4 Sur 14 Sudoeste 0 -- -- 71
2020-06-19 21:00:00 21.4 12 Sudoeste 18 Sudoeste 0 -- -- 60
2020-06-19 20:00:00 24.5 3 Noroeste 12 Nordeste 0 -- -- 47
2020-06-19 19:00:00 24.1 8 Nordeste 18 Nordeste 0 -- -- 47
2020-06-19 18:00:00 23.9 12 Nordeste 23 Nordeste 0 -- -- 50
2020-06-19 17:00:00 24 15 Nordeste 30 Nordeste 0 -- -- 49
2020-06-19 16:00:00 23.7 21 Nordeste 30 Nordeste 0 -- -- 47
2020-06-19 15:00:00 23.2 18 Nordeste 32 Nordeste 0 -- -- 49
2020-06-19 14:00:00 22.6 22 Nordeste 31 Nordeste 0 -- -- 54
2020-06-19 13:00:00 22.3 19 Nordeste 28 Nordeste 0 -- -- 55
2020-06-19 12:00:00 20.4 13 Nordeste 25 Norte 0 -- -- 68
2020-06-19 11:00:00 20.9 17 Nordeste 28 Nordeste 0 -- -- 62
2020-06-19 10:00:00 21.5 17 Nordeste 29 Norte 0 -- -- 63
2020-06-19 09:00:00 20.2 14 Nordeste 23 Norte 0 -- -- 70
2020-06-19 08:00:00 19.6 15 Norte 23 Nordeste 0 -- -- 84
2020-06-19 07:00:00 19.2 10 Nordeste 21 Nordeste 0 -- -- 88
2020-06-19 06:00:00 19.1 15 Norte 22 Norte 0 -- -- 89
2020-06-19 05:00:00 18.7 7 Nordeste 13 Norte 0 -- -- 90
2020-06-19 04:00:00 18.1 9 Norte 13 Noroeste 0 -- -- 88
2020-06-19 03:00:00 17.5 3 Este 6 Noroeste 0 -- -- 87
2020-06-19 02:00:00 17.8 3 Oeste 6 Oeste 0 -- -- 86
2020-06-19 01:00:00 17.8 3 Sudeste 5 Oeste 0 -- -- 86
2020-06-19 00:00:00 17.7 4 Oeste 9 Norte 0 -- -- 86
2020-06-18 23:00:00 18.7 8 Norte 10 Norte 0 -- -- 81
2020-06-18 22:00:00 20.2 4 Sur 16 Sudeste 0 -- -- 77
2020-06-18 21:00:00 21.6 9 Sudeste 21 Este 0 -- -- 70
2020-06-18 20:00:00 23.8 11 Sudeste 22 Este 0 -- -- 60
2020-06-18 19:00:00 24.5 10 Este 21 Este 0 -- -- 56
2020-06-18 18:00:00 24.6 11 Este 23 Este 0 -- -- 59
2020-06-18 17:00:00 23.8 12 Este 29 Nordeste 0 -- -- 58
2020-06-18 16:00:00 22.8 19 Nordeste 37 Nordeste 0 -- -- 63
2020-06-18 15:00:00 20.4 29 Nordeste 41 Nordeste 0 -- -- 71
2020-06-18 14:00:00 18.3 27 Nordeste 46 Norte 0 -- -- 78
2020-06-18 13:00:00 23.9 15 Sur 29 Sur 0 -- -- 66
2020-06-18 12:00:00 23.4 19 Sur 31 Sur 0 -- -- 69
2020-06-18 11:00:00 24 13 Sur 24 Sur 0 -- -- 62
2020-06-18 10:00:00 23.8 13 Sur 23 Sudeste 0 -- -- 67
2020-06-18 09:00:00 23.8 8 Sur 18 Sur 0 -- -- 67
2020-06-18 08:00:00 21 12 Sur 21 Sur 0 -- -- 87
2020-06-18 07:00:00 19.4 7 Sudeste 11 Sur 0 -- -- 91
2020-06-18 06:00:00 19.1 10 Sudeste 15 Sudeste 0.2 -- -- 91
2020-06-18 05:00:00 19.2 6 Sudeste 13 Sur 0 -- -- 90
2020-06-18 04:00:00 19 12 Sudeste 15 Sudeste 0 -- -- 89
2020-06-18 03:00:00 19.1 9 Sudeste 18 Sur 0 -- -- 86
2020-06-18 02:00:00 18.8 12 Sudeste 17 Sudeste 0 -- -- 85
2020-06-18 01:00:00 18.7 11 Sudeste 15 Sudeste 0 -- -- 83
2020-06-18 00:00:00 18.5 7 Sudeste 15 Sur 0 -- -- 81
2020-06-17 23:00:00 18.8 5 Sur 17 Sur 0 -- -- 77
2020-06-17 22:00:00 19.4 10 Sur 18 Sur 0 -- -- 73
2020-06-17 21:00:00 20.5 9 Sudeste 22 Este 0 -- -- 68
2020-06-17 20:00:00 21.8 15 Este 26 Este 0 -- -- 64
2020-06-17 19:00:00 22 14 Este 27 Este 0 -- -- 64
2020-06-17 18:00:00 21 12 Nordeste 24 Este 1.4 -- -- 71
2020-06-17 17:00:00 21.2 17 Este 35 Este 0 -- -- 62
2020-06-17 16:00:00 22.9 22 Este 35 Este 0 -- -- 55
2020-06-17 15:00:00 25.4 23 Este 34 Este 0 -- -- 50
2020-06-17 14:00:00 23.5 20 Este 30 Este 0 -- -- 54
2020-06-17 13:00:00 23.3 17 Este 30 Este 0 -- -- 58
2020-06-17 12:00:00 23.2 18 Este 30 Nordeste 0 -- -- 58
2020-06-17 11:00:00 23.2 15 Este 28 Sudeste 0 -- -- 56
2020-06-17 10:00:00 23 18 Este 27 Este 0 -- -- 56
2020-06-17 09:00:00 22.4 11 Este 24 Este 0 -- -- 59
2020-06-17 08:00:00 19.7 4 Nordeste 9 Nordeste 0 -- -- 79
2020-06-17 07:00:00 17 2 Norte 11 Este 0 -- -- 87
2020-06-17 06:00:00 16.1 3 Sudeste 6 Oeste 0 -- -- 91
2020-06-17 05:00:00 16.6 0 Calma -- -- 0 -- -- 90
2020-06-17 04:00:00 17.3 2 Este 4 Noroeste 0 -- -- 90
2020-06-17 03:00:00 17.7 0 Calma 5 Nordeste 0 -- -- 88
2020-06-17 02:00:00 18.1 2 Oeste 7 Sur 0 -- -- 85
2020-06-17 01:00:00 18.3 4 Noroeste 6 Oeste 0 -- -- 86
2020-06-17 00:00:00 18.4 0 Calma 6 Nordeste 0 -- -- 84
2020-06-16 23:00:00 19.3 4 Este 7 Sudeste 0 -- -- 80
2020-06-16 22:00:00 19.5 4 Este 11 Este 0 -- -- 79
2020-06-16 21:00:00 20.5 6 Este 17 Nordeste 0 -- -- 74
2020-06-16 20:00:00 21 12 Nordeste 21 Nordeste 0 -- -- 73
2020-06-16 19:00:00 22.2 10 Nordeste 25 Nordeste 0 -- -- 68
2020-06-16 18:00:00 22.4 14 Nordeste 26 Nordeste 0 -- -- 67
2020-06-16 17:00:00 22.7 17 Nordeste 25 Nordeste 0 -- -- 66
2020-06-16 16:00:00 22.5 18 Nordeste 30 Nordeste 0 -- -- 65
2020-06-16 15:00:00 24.3 15 Nordeste 27 Nordeste 0 -- -- 60
2020-06-16 14:00:00 23.6 13 Nordeste 24 Nordeste 0 -- -- 61
2020-06-16 13:00:00 22.5 16 Nordeste 23 Nordeste 0 -- -- 63
2020-06-16 12:00:00 24.6 10 Nordeste 20 Nordeste 0 -- -- 55
2020-06-16 11:00:00 24.1 8 Nordeste 18 Norte 0 -- -- 53
2020-06-16 10:00:00 23.6 9 Nordeste 19 Nordeste 0 -- -- 57
2020-06-16 09:00:00 21.3 15 Nordeste 24 Nordeste 0 -- -- 67
2020-06-16 08:00:00 19.7 6 Nordeste 12 Nordeste 0 -- -- 92
2020-06-16 07:00:00 17.1 0 Calma 4 Nordeste 0 -- -- 93
2020-06-16 06:00:00 17 0 Calma 3 Sur 0 -- -- 94
2020-06-16 05:00:00 16.8 2 Noroeste 6 Noroeste 0 -- -- 93
2020-06-16 04:00:00 17.4 3 Sudoeste 5 Sur 0 -- -- 92
2020-06-16 03:00:00 17.7 0 Calma 4 Sur 0 -- -- 93
2020-06-16 02:00:00 17.8 0 Calma 4 Sudeste 0 -- -- 92
2020-06-16 01:00:00 18.2 2 Oeste 6 Noroeste 0 -- -- 92
2020-06-16 00:00:00 18.7 2 Oeste 9 Sur 0 -- -- 91
2020-06-15 23:00:00 19 6 Sur 12 Sur 0 -- -- 89
2020-06-15 22:00:00 19.5 10 Sur 15 Sudoeste 0 -- -- 87
2020-06-15 21:00:00 20.6 10 Sudoeste 21 Sudoeste 0 -- -- 80
2020-06-15 20:00:00 22.3 13 Sur 24 Sur 0 -- -- 72
2020-06-15 19:00:00 24.4 14 Sur 22 Sudoeste 0 -- -- 60
2020-06-15 18:00:00 25.2 12 Sudoeste 21 Sur 0 -- -- 58
2020-06-15 17:00:00 25.7 12 Este 24 Este 0 -- -- 54
2020-06-15 16:00:00 24.7 14 Nordeste 25 Nordeste 0 -- -- 54
2020-06-15 15:00:00 24.6 12 Nordeste 23 Nordeste 0 -- -- 52
2020-06-15 14:00:00 24.4 10 Norte 19 Norte 0 -- -- 55
2020-06-15 13:00:00 24.7 8 Sudoeste 21 Sur 0 -- -- 62
2020-06-15 12:00:00 23.8 11 Nordeste 19 Nordeste 0 -- -- 59
2020-06-15 11:00:00 24.3 8 Nordeste 19 Este 0 -- -- 55
2020-06-15 10:00:00 23.6 9 Nordeste 18 Nordeste 0 -- -- 59
2020-06-15 09:00:00 22.4 6 Norte 12 Norte 0 -- -- 69
2020-06-15 08:00:00 22.3 0 Calma 5 Nordeste 0 -- -- 68
2020-06-15 07:00:00 18.1 3 Sur 7 Sudoeste 0 -- -- 88
2020-06-15 06:00:00 17 0 Calma 4 Sudoeste 0 -- -- 85
2020-06-15 05:00:00 17.2 3 Sudoeste 7 Sudoeste 0 -- -- 84
2020-06-15 04:00:00 17.5 5 Sudoeste 12 Sudoeste 0 -- -- 81
2020-06-15 03:00:00 18.2 5 Sudoeste 10 Sudoeste 0 -- -- 78
2020-06-15 02:00:00 18.2 4 Sur 16 Oeste 0 -- -- 79
2020-06-15 01:00:00 18.4 4 Sur 20 Sudoeste 0 -- -- 80
2020-06-15 00:00:00 19.5 13 Sudoeste 24 Sudoeste 0 -- -- 79
2020-06-14 23:00:00 19.8 17 Sudoeste 28 Sudoeste 0 -- -- 78
2020-06-14 22:00:00 19.5 11 Sur 21 Sudoeste 0 -- -- 78
2020-06-14 21:00:00 20.6 14 Sudoeste 25 Sudoeste 0 -- -- 72
2020-06-14 20:00:00 22.8 14 Sudoeste 26 Sudoeste 0 -- -- 53
2020-06-14 19:00:00 23.9 14 Sudoeste 23 Sur 0 -- -- 58
2020-06-14 18:00:00 23.6 15 Sudoeste 24 Sur 0 -- -- 61
2020-06-14 17:00:00 22.9 13 Sudoeste 23 Sudoeste 0 -- -- 66
2020-06-14 16:00:00 22.6 13 Sudoeste 20 Sudoeste 0 -- -- 66
2020-06-14 15:00:00 23 3 Nordeste 15 Norte 0 -- -- 57
2020-06-14 14:00:00 23.7 4 Norte 18 Nordeste 0 -- -- 53
2020-06-14 13:00:00 25.3 7 Oeste 15 Norte 0 -- -- 45
2020-06-14 12:00:00 24.2 9 Noroeste 23 Noroeste 0 -- -- 49
2020-06-14 11:00:00 23.3 10 Norte 19 Norte 0 -- -- 53
2020-06-14 10:00:00 22.3 12 Nordeste 19 Nordeste 0 -- -- 49
2020-06-14 09:00:00 21.6 10 Nordeste 18 Nordeste 0 -- -- 65
2020-06-14 08:00:00 20.2 2 Nordeste 6 Nordeste 0 -- -- 80
2020-06-14 07:00:00 17.7 0 Calma 3 Noroeste 0 -- -- 83
2020-06-14 06:00:00 17.1 2 Sudoeste 6 Sur 0 -- -- 85
2020-06-14 05:00:00 16.8 4 Sudoeste 7 Sudeste 0 -- -- 85
2020-06-14 04:00:00 17.2 3 Sur 6 Sudeste 0 -- -- 84
2020-06-14 03:00:00 17 3 Oeste 6 Sudoeste 0 -- -- 77
2020-06-14 02:00:00 16.4 4 Sudoeste 7 Sudoeste 0 -- -- 72
2020-06-14 01:00:00 16.5 0 Calma 4 Oeste 0 -- -- 70
2020-06-14 00:00:00 18.2 3 Sur 6 Sudeste 0 -- -- 63
2020-06-13 23:00:00 18.5 0 Calma 8 Oeste 0 -- -- 62
2020-06-13 22:00:00 18.8 4 Sudoeste 5 Oeste 0 -- -- 59
2020-06-13 21:00:00 21.7 5 Oeste 21 Noroeste 0 -- -- 46
2020-06-13 20:00:00 23.4 10 Noroeste 30 Oeste 0 -- -- 39
2020-06-13 19:00:00 24.3 12 Noroeste 36 Oeste 0 -- -- 36
2020-06-13 18:00:00 24.4 24 Oeste 32 Oeste 0 -- -- 38
2020-06-13 17:00:00 24.6 18 Noroeste 29 Noroeste 0 -- -- 37
2020-06-13 16:00:00 26.2 14 Noroeste 33 Norte 0 -- -- 41
2020-06-13 15:00:00 25.4 20 Norte 34 Norte 0 -- -- 41
2020-06-13 14:00:00 25.4 20 Noroeste 42 Oeste 0 -- -- 41
2020-06-13 13:00:00 25.1 26 Oeste 42 Oeste 0 -- -- 47
2020-06-13 12:00:00 24.5 28 Oeste 40 Oeste 0 -- -- 48
2020-06-13 11:00:00 24.1 23 Oeste 40 Oeste 0 -- -- 50
2020-06-13 10:00:00 22.4 18 Sudoeste 32 Sudoeste 0 -- -- 66
2020-06-13 09:00:00 20.4 23 Sudoeste 37 Sudoeste 0 -- -- 80
2020-06-13 08:00:00 19.8 26 Sudoeste 34 Sudoeste 0 -- -- 83
2020-06-13 07:00:00 19.5 20 Sudoeste 30 Sudoeste 0 -- -- 84
2020-06-13 06:00:00 18.7 14 Sur 26 Sur 0 -- -- 86
2020-06-13 05:00:00 18.5 15 Sur 22 Sur 0 -- -- 87
2020-06-13 04:00:00 18.5 15 Sudoeste 29 Sur 0 -- -- 85
2020-06-13 03:00:00 18.8 17 Sur 33 Sur 0 -- -- 85
2020-06-13 02:00:00 19.2 22 Sur 37 Sur 0 -- -- 84
2020-06-13 01:00:00 18.8 17 Sudoeste 24 Sudoeste 0 -- -- 90
2020-06-13 00:00:00 18.8 13 Sur 17 Sur 0 -- -- 89
2020-06-12 23:00:00 19.3 8 Sur 20 Sur 0 -- -- 85
2020-06-12 22:00:00 19.6 11 Sur 21 Sur 0 -- -- 86
2020-06-12 21:00:00 20.4 14 Sudoeste 24 Sudoeste 0 -- -- 82
2020-06-12 20:00:00 21.4 18 Sur 27 Sur 0 -- -- 78
2020-06-12 19:00:00 23.2 18 Sur 29 Sudoeste 0 -- -- 70
2020-06-12 18:00:00 24.3 19 Sur 31 Sudoeste 0 -- -- 63
2020-06-12 17:00:00 24.5 21 Sudoeste 31 Sudoeste 0 -- -- 65
2020-06-12 16:00:00 24.8 21 Sudoeste 32 Sur 0 -- -- 62
2020-06-12 15:00:00 25.1 22 Sudoeste 40 Sudoeste 0 -- -- 64
2020-06-12 14:00:00 25.6 24 Sudoeste 46 Sudoeste 0 -- -- 59
2020-06-12 13:00:00 24.7 28 Sudoeste 43 Sudoeste 0 -- -- 64
2020-06-12 12:00:00 24.4 27 Sudoeste 42 Sudoeste 0 -- -- 64
2020-06-12 11:00:00 23.3 30 Sudoeste 42 Sudoeste 0 -- -- 70
2020-06-12 10:00:00 22 32 Sudoeste 46 Sudoeste 0 -- -- 78
2020-06-12 09:00:00 21.4 28 Sudoeste 45 Sudoeste 0 -- -- 78
2020-06-12 08:00:00 20.8 23 Sudoeste 43 Sudoeste 0 -- -- 81
2020-06-12 07:00:00 19.9 28 Sur 47 Sur 0 -- -- 82
2020-06-12 06:00:00 19.6 29 Sudoeste 49 Sur 0 -- -- 81
2020-06-12 05:00:00 19.6 32 Sudoeste 54 Sudoeste 0 -- -- 80
2020-06-12 04:00:00 19.8 36 Sur 57 Sur 0 -- -- 80
2020-06-12 03:00:00 19.9 36 Sur 56 Sur 0 -- -- 80
2020-06-12 02:00:00 19.8 34 Sur 51 Sudoeste 0 -- -- 78
2020-06-12 01:00:00 19.6 28 Sur 46 Sur 0 -- -- 82
2020-06-12 00:00:00 19.8 27 Sur 39 Sur 0 -- -- 85
2020-06-11 23:00:00 19.7 24 Sur 35 Sur 0 -- -- 85
2020-06-11 22:00:00 19.8 21 Sur 39 Sur 0 -- -- 83
2020-06-11 21:00:00 20.3 24 Sur 41 Sur 0 -- -- 79
2020-06-11 20:00:00 20.8 31 Sur 50 Sur 0 -- -- 76
2020-06-11 19:00:00 21.9 34 Sur 55 Sur 0 -- -- 71
2020-06-11 18:00:00 21.8 34 Sur 53 Sur 0 -- -- 73
2020-06-11 17:00:00 21.9 29 Sur 50 Sur 0 -- -- 72
2020-06-11 16:00:00 22.2 33 Sur 53 Sur 0 -- -- 72
2020-06-11 15:00:00 22.7 34 Sur 50 Sur 0 -- -- 70
2020-06-11 14:00:00 22.5 30 Sur 44 Sur 0 -- -- 68
2020-06-11 13:00:00 22.6 29 Sur 39 Sudoeste 0 -- -- 65
2020-06-11 12:00:00 21.2 25 Sudoeste 38 Sudoeste 0 -- -- 73
2020-06-11 11:00:00 20.7 27 Sudoeste 40 Sur 0 -- -- 76
2020-06-11 10:00:00 19.2 15 Sur 31 Sudoeste 0.2 -- -- 89
2020-06-11 09:00:00 19.2 17 Sudoeste 26 Sur 0 -- -- 86
2020-06-11 08:00:00 18.5 12 Sudoeste 17 Sudoeste 0 -- -- 89
2020-06-11 07:00:00 17.6 8 Sur 12 Sudoeste 0 -- -- 90
2020-06-11 06:00:00 16.8 2 Sur 10 Sudoeste 0 -- -- 89
2020-06-11 05:00:00 17.3 10 Sudeste 18 Sudeste 0 -- -- 85
2020-06-11 04:00:00 17.2 8 Sudoeste 12 Sudoeste 0 -- -- 89
2020-06-11 03:00:00 16.4 4 Sudoeste 5 Sudoeste 0 -- -- 90
2020-06-11 02:00:00 17 3 Sur 6 Sur 0 -- -- 89
2020-06-11 01:00:00 16.8 3 Sudeste -- -- 0 -- -- 87
2020-06-11 00:00:00 17.3 3 Sudoeste 11 Sur 0 -- -- 83